This is the latest recevied weather packets stored in our database for station/object VK5ARG-5. If no packets are shown the sender has not sent any weather packets the latest 10 day(s).
| Time | Temp. | Humidity | Pressure | Rain* | Wind** | Luminosity | Snow |
|---|---|---|---|---|---|---|---|
| 1777392322 | 18.89° C | 42% | - | 0 mm | - | - | - |
| 1777388726 | 19.44° C | 42% | - | 0 mm | - | - | - |
| 1777377346 | 19.44° C | 44% | - | 0 mm | - | - | - |
| 1777376126 | 19.44° C | 44% | - | 0 mm | - | - | - |
| 1777374323 | 20° C | 43% | - | 0 mm | - | - | - |
| 1777373125 | 20.56° C | 42% | - | 0 mm | - | - | - |
| 1777372521 | 20.56° C | 42% | - | 0 mm | - | - | - |
| 1777371926 | 20.56° C | 42% | - | 0 mm | - | - | - |
| 1777370124 | 20° C | 44% | - | 0 mm | - | - | - |
| 1777368925 | 20.56° C | 44% | - | 0 mm | - | - | - |
| 1777365923 | 22.22° C | 35% | - | 0 mm | - | - | - |
| 1777359920 | 23.89° C | 34% | - | 0 mm | - | - | - |
| 1777354522 | 24.44° C | 33% | - | 0 mm | - | - | - |
| 1777353324 | 24.44° C | 33% | - | 0 mm | - | - | - |
| 1777352125 | 25° C | 31% | - | 0 mm | - | - | - |
| 1777347321 | 24.44° C | 32% | - | 0 mm | - | - | - |
| 1777345527 | 24.44° C | 33% | - | 0 mm | - | - | - |
| 1777343142 | 24.44° C | 33% | - | 0 mm | - | - | - |
| 1777340723 | 23.33° C | 38% | - | 0 mm | - | - | - |
| 1777336524 | 22.22° C | 42% | - | 0 mm | - | - | - |
| 1777331728 | 19.44° C | 50% | - | 0 mm | - | - | - |
| 1777330522 | 18.89° C | 53% | - | 0 mm | - | - | - |
| 1777329926 | 18.33° C | 55% | - | 0 mm | - | - | - |
| 1777328165 | 17.22° C | 59% | - | 0 mm | - | - | - |
| 1777322725 | 16.67° C | 61% | - | 0 mm | - | - | - |
* Rain latest hour (hover to see other rain measurements)
** Current wind speed in m/s (hover to see current wind gust speed)